Lander, WY

2:53 PM MDT on April 27, 2017 (GMT -0600)
Hunt | | Change Station
Active Advisory: Winter Weather Advisory Active Notice: Public Information Statement

Elev 5587 ft 42.81 °N, 108.73 °W | Updated 18 minutes ago

Light Snow
Light Snow Mist
33 °F
Feels Like 28 °F
N
6
Wind Variable Wind from West

Today
High -- | Low -- °F
--% Chance of Precip.
Yesterday
High -- | Low -- °F
Precip. -- in
Pressure 29.59 in
Visibility 2.0 miles
Clouds Overcast 1100 ft
Windchill 28 °F
Dew Point 32 °F
Humidity 96%
Rainfall 0.39 in
Snow Depth Not available.
6:14 AM 8:11 PM
Waxing Crescent, 3% visible
SPECI KLND 272035Z AUTO 27005KT 2SM -SN BR OVC011 01/00 A2959 RMK AO2 P0004 T00060000
Pressure 29.59 in
Visibility 2.0 miles
Clouds Overcast 1100 ft
Windchill 28 °F
Dew Point 32 °F
Humidity 96%
Rainfall 0.39 in
Snow Depth Not available.
6:14 AM 8:11 PM
Waxing Crescent, 3% visible
SPECI KLND 272035Z AUTO 27005KT 2SM -SN BR OVC011 01/00 A2959 RMK AO2 P0004 T00060000

Get Your Daily Forecast Email!

Thanks for signing up!

Be on the lookout for a verification email in your inbox.

You'll start receiving severe weather alerts in your inbox..

×

10-Day Weather Forecast

Almanac

Astronomy

Apr. 27, 2017 Rise Set
Actual Time
Civil Twilight
Nautical Twilight
Astronomical Twilight
Moon
Length of Visible Light
Length of Day
Tomorrow will be .
, % of the Moon is Illuminated

Today's Extremes

State Highs State Lows

Community

WunderPhotos

WunderBlog® & News

Nearby

Air Quality

  Air Quality AQ Index Pollutant
Not available.

Snow Depth

Station Depth Elevation

Earthquake Activity

City Distance Mag. Time & Date
Minimum magnitude displayed is 2.5.

Coastal Water Temperatures

Place Temperature

Stations

Nearby Weather Stations

Station Location Temp. Windchill Dew Point Humidity Wind Precip. Elev Updated Type
                   

Watches & Warnings

Winter Weather Advisory
Issued: 12:06 PM MDT Apr. 27, 2017 – National Weather Service

... Winter Weather Advisory remains in effect from 6 PM this
evening to midnight MDT Friday night...

* timing... a mix of rain and snow will change to all snow tonight
and continue into Friday evening.

* Snow accumulation... 3 to 6 inches. However, locally heavier
amounts in more persistent snow bands are possible.

* Main impact... roads may become slushy to snow covered
especially where heavier snow persists.

* Other impacts... additional rock or mudslides could occur in
the Wind River Canyon.

Precautionary/preparedness actions...

A Winter Weather Advisory for snow means periods of snow will
cause primarily travel difficulties. Be prepared for snow covered
and slick roads with limited visibilities. Slow down, and allow
extra time to reach your destination. Check the latest Road
conditions at wyoroad.Info or by dialing 5 1 1.